sensor_id;sensor_type;location;lat;lon;timestamp;P1;durP1;ratioP1;P2;durP2;ratioP2
60488;SDS011;46331;49.252;8.904;2023-12-28T00:00:09;18.23;;;7.83;;
60488;SDS011;46331;49.252;8.904;2023-12-28T00:00:50;15.88;;;7.15;;
60488;SDS011;46331;49.252;8.904;2023-12-28T00:01:31;16.92;;;7.45;;
60488;SDS011;46331;49.252;8.904;2023-12-28T00:02:12;18.63;;;7.17;;
60488;SDS011;46331;49.252;8.904;2023-12-28T00:02:53;16.67;;;7.10;;
60488;SDS011;46331;49.252;8.904;2023-12-28T00:03:34;15.73;;;6.93;;
60488;SDS011;46331;49.252;8.904;2023-12-28T00:04:15;16.30;;;7.37;;
60488;SDS011;46331;49.252;8.904;2023-12-28T00:04:55;17.88;;;7.65;;
60488;SDS011;46331;49.252;8.904;2023-12-28T00:05:36;18.60;;;7.40;;
60488;SDS011;46331;49.252;8.904;2023-12-28T00:06:17;15.93;;;6.53;;
60488;SDS011;46331;49.252;8.904;2023-12-28T00:06:57;20.95;;;7.72;;
60488;SDS011;46331;49.252;8.904;2023-12-28T00:07:38;16.95;;;7.90;;
60488;SDS011;46331;49.252;8.904;2023-12-28T00:08:18;16.03;;;6.70;;
60488;SDS011;46331;49.252;8.904;2023-12-28T00:08:59;20.55;;;7.88;;
60488;SDS011;46331;49.252;8.904;2023-12-28T00:09:41;20.55;;;7.93;;
60488;SDS011;46331;49.252;8.904;2023-12-28T00:10:21;29.33;;;10.73;;
60488;SDS011;46331;49.252;8.904;2023-12-28T00:11:02;24.25;;;9.40;;
60488;SDS011;46331;49.252;8.904;2023-12-28T00:11:43;24.38;;;8.90;;
60488;SDS011;46331;49.252;8.904;2023-12-28T00:12:23;22.13;;;8.93;;
60488;SDS011;46331;49.252;8.904;2023-12-28T00:13:04;23.90;;;8.70;;
60488;SDS011;46331;49.252;8.904;2023-12-28T00:13:44;24.42;;;8.25;;
60488;SDS011;46331;49.252;8.904;2023-12-28T00:14:25;18.90;;;8.57;;
60488;SDS011;46331;49.252;8.904;2023-12-28T00:15:06;19.13;;;7.30;;
60488;SDS011;46331;49.252;8.904;2023-12-28T00:15:47;21.05;;;8.13;;
60488;SDS011;46331;49.252;8.904;2023-12-28T00:16:27;18.23;;;7.93;;
60488;SDS011;46331;49.252;8.904;2023-12-28T00:17:08;15.13;;;6.85;;
60488;SDS011;46331;49.252;8.904;2023-12-28T00:17:48;20.83;;;8.57;;
60488;SDS011;46331;49.252;8.904;2023-12-28T00:18:29;20.90;;;7.80;;
60488;SDS011;46331;49.252;8.904;2023-12-28T00:19:09;19.10;;;8.55;;
60488;SDS011;46331;49.252;8.904;2023-12-28T00:19:50;23.47;;;8.43;;
60488;SDS011;46331;49.252;8.904;2023-12-28T00:20:31;20.38;;;8.07;;
60488;SDS011;46331;49.252;8.904;2023-12-28T00:21:11;20.40;;;8.73;;
60488;SDS011;46331;49.252;8.904;2023-12-28T00:21:52;19.20;;;8.30;;
60488;SDS011;46331;49.252;8.904;2023-12-28T00:22:32;18.60;;;7.60;;
60488;SDS011;46331;49.252;8.904;2023-12-28T00:23:13;16.75;;;7.32;;
60488;SDS011;46331;49.252;8.904;2023-12-28T00:23:53;17.03;;;7.90;;
60488;SDS011;46331;49.252;8.904;2023-12-28T00:24:34;16.57;;;7.17;;
60488;SDS011;46331;49.252;8.904;2023-12-28T00:25:14;17.92;;;7.80;;
60488;SDS011;46331;49.252;8.904;2023-12-28T00:25:55;17.37;;;7.57;;
60488;SDS011;46331;49.252;8.904;2023-12-28T00:26:35;20.40;;;7.95;;
60488;SDS011;46331;49.252;8.904;2023-12-28T00:27:18;17.05;;;6.82;;
60488;SDS011;46331;49.252;8.904;2023-12-28T00:27:58;17.08;;;7.72;;
60488;SDS011;46331;49.252;8.904;2023-12-28T00:28:39;15.37;;;7.30;;
60488;SDS011;46331;49.252;8.904;2023-12-28T00:29:19;16.23;;;7.40;;
60488;SDS011;46331;49.252;8.904;2023-12-28T00:30:01;13.75;;;6.72;;
60488;SDS011;46331;49.252;8.904;2023-12-28T00:30:41;16.37;;;7.43;;
60488;SDS011;46331;49.252;8.904;2023-12-28T00:31:22;17.33;;;6.97;;
60488;SDS011;46331;49.252;8.904;2023-12-28T00:32:03;18.27;;;7.20;;
60488;SDS011;46331;49.252;8.904;2023-12-28T00:32:43;18.40;;;7.33;;
60488;SDS011;46331;49.252;8.904;2023-12-28T00:33:26;16.70;;;7.68;;
60488;SDS011;46331;49.252;8.904;2023-12-28T00:34:06;15.40;;;6.75;;
60488;SDS011;46331;49.252;8.904;2023-12-28T00:34:47;18.10;;;6.87;;
60488;SDS011;46331;49.252;8.904;2023-12-28T00:35:27;12.93;;;6.33;;
60488;SDS011;46331;49.252;8.904;2023-12-28T00:36:08;14.85;;;6.80;;
60488;SDS011;46331;49.252;8.904;2023-12-28T00:36:50;16.63;;;7.10;;
60488;SDS011;46331;49.252;8.904;2023-12-28T00:37:30;14.93;;;6.60;;
60488;SDS011;46331;49.252;8.904;2023-12-28T00:38:11;16.27;;;6.90;;
60488;SDS011;46331;49.252;8.904;2023-12-28T00:38:52;16.88;;;7.32;;
60488;SDS011;46331;49.252;8.904;2023-12-28T00:39:32;16.75;;;7.25;;
60488;SDS011;46331;49.252;8.904;2023-12-28T00:40:14;15.88;;;7.65;;
60488;SDS011;46331;49.252;8.904;2023-12-28T00:40:55;18.25;;;7.85;;
60488;SDS011;46331;49.252;8.904;2023-12-28T00:41:35;17.77;;;8.37;;
60488;SDS011;46331;49.252;8.904;2023-12-28T00:42:17;21.45;;;7.75;;
60488;SDS011;46331;49.252;8.904;2023-12-28T00:42:59;18.98;;;8.07;;
60488;SDS011;46331;49.252;8.904;2023-12-28T00:43:39;17.00;;;7.70;;
60488;SDS011;46331;49.252;8.904;2023-12-28T00:44:20;19.17;;;8.27;;
60488;SDS011;46331;49.252;8.904;2023-12-28T00:45:00;18.17;;;7.90;;
60488;SDS011;46331;49.252;8.904;2023-12-28T00:45:41;17.13;;;6.60;;
60488;SDS011;46331;49.252;8.904;2023-12-28T00:46:23;18.30;;;7.30;;
60488;SDS011;46331;49.252;8.904;2023-12-28T00:47:03;15.25;;;6.97;;
60488;SDS011;46331;49.252;8.904;2023-12-28T00:47:44;18.27;;;7.23;;
60488;SDS011;46331;49.252;8.904;2023-12-28T00:48:25;15.63;;;6.18;;
60488;SDS011;46331;49.252;8.904;2023-12-28T00:49:05;18.03;;;7.57;;
60488;SDS011;46331;49.252;8.904;2023-12-28T00:49:48;18.45;;;8.25;;
60488;SDS011;46331;49.252;8.904;2023-12-28T00:50:28;21.63;;;7.90;;
60488;SDS011;46331;49.252;8.904;2023-12-28T00:51:12;20.02;;;8.20;;
60488;SDS011;46331;49.252;8.904;2023-12-28T00:51:52;22.07;;;8.37;;
60488;SDS011;46331;49.252;8.904;2023-12-28T00:52:33;20.25;;;7.60;;
60488;SDS011;46331;49.252;8.904;2023-12-28T00:53:13;22.60;;;8.43;;
60488;SDS011;46331;49.252;8.904;2023-12-28T00:53:54;19.80;;;7.80;;
60488;SDS011;46331;49.252;8.904;2023-12-28T00:54:35;22.70;;;9.57;;
60488;SDS011;46331;49.252;8.904;2023-12-28T00:55:17;27.40;;;10.48;;
60488;SDS011;46331;49.252;8.904;2023-12-28T00:55:57;24.20;;;9.83;;
60488;SDS011;46331;49.252;8.904;2023-12-28T00:56:38;28.08;;;10.05;;
60488;SDS011;46331;49.252;8.904;2023-12-28T00:57:18;22.03;;;9.50;;
60488;SDS011;46331;49.252;8.904;2023-12-28T00:57:59;21.55;;;9.10;;
60488;SDS011;46331;49.252;8.904;2023-12-28T00:58:40;20.73;;;8.23;;
60488;SDS011;46331;49.252;8.904;2023-12-28T00:59:20;26.58;;;9.48;;
60488;SDS011;46331;49.252;8.904;2023-12-28T01:00:01;20.77;;;8.43;;
60488;SDS011;46331;49.252;8.904;2023-12-28T01:00:43;18.08;;;8.40;;
60488;SDS011;46331;49.252;8.904;2023-12-28T01:01:24;19.00;;;7.97;;
60488;SDS011;46331;49.252;8.904;2023-12-28T01:02:04;18.53;;;7.73;;
60488;SDS011;46331;49.252;8.904;2023-12-28T01:02:45;19.50;;;7.57;;
60488;SDS011;46331;49.252;8.904;2023-12-28T01:03:29;20.17;;;8.23;;
60488;SDS011;46331;49.252;8.904;2023-12-28T01:04:10;20.30;;;8.00;;
60488;SDS011;46331;49.252;8.904;2023-12-28T01:04:51;19.27;;;7.90;;
60488;SDS011;46331;49.252;8.904;2023-12-28T01:05:31;19.30;;;7.43;;
60488;SDS011;46331;49.252;8.904;2023-12-28T01:06:12;16.23;;;6.95;;
60488;SDS011;46331;49.252;8.904;2023-12-28T01:06:53;16.40;;;6.70;;
60488;SDS011;46331;49.252;8.904;2023-12-28T01:07:34;13.68;;;6.28;;
60488;SDS011;46331;49.252;8.904;2023-12-28T01:08:15;15.73;;;6.07;;
60488;SDS011;46331;49.252;8.904;2023-12-28T01:08:56;12.77;;;5.30;;
60488;SDS011;46331;49.252;8.904;2023-12-28T01:09:37;12.37;;;5.37;;
60488;SDS011;46331;49.252;8.904;2023-12-28T01:10:17;11.07;;;4.93;;
60488;SDS011;46331;49.252;8.904;2023-12-28T01:10:58;11.17;;;4.67;;
60488;SDS011;46331;49.252;8.904;2023-12-28T01:11:38;10.68;;;4.75;;
60488;SDS011;46331;49.252;8.904;2023-12-28T01:12:19;12.53;;;4.30;;
60488;SDS011;46331;49.252;8.904;2023-12-28T01:13:00;14.13;;;5.60;;
60488;SDS011;46331;49.252;8.904;2023-12-28T01:13:40;10.30;;;4.95;;
60488;SDS011;46331;49.252;8.904;2023-12-28T01:14:21;8.83;;;4.23;;
60488;SDS011;46331;49.252;8.904;2023-12-28T01:15:01;7.93;;;4.30;;
60488;SDS011;46331;49.252;8.904;2023-12-28T01:15:42;11.90;;;5.38;;
60488;SDS011;46331;49.252;8.904;2023-12-28T01:16:23;10.33;;;4.53;;
60488;SDS011;46331;49.252;8.904;2023-12-28T01:17:04;10.10;;;4.40;;
60488;SDS011;46331;49.252;8.904;2023-12-28T01:17:44;13.90;;;5.20;;
60488;SDS011;46331;49.252;8.904;2023-12-28T01:18:25;13.70;;;5.00;;
60488;SDS011;46331;49.252;8.904;2023-12-28T01:19:06;9.63;;;4.40;;
60488;SDS011;46331;49.252;8.904;2023-12-28T01:19:46;10.90;;;4.80;;
60488;SDS011;46331;49.252;8.904;2023-12-28T01:20:27;9.40;;;4.53;;
60488;SDS011;46331;49.252;8.904;2023-12-28T01:21:07;9.07;;;4.25;;
60488;SDS011;46331;49.252;8.904;2023-12-28T01:21:48;10.15;;;4.20;;
60488;SDS011;46331;49.252;8.904;2023-12-28T01:22:29;8.10;;;4.00;;
60488;SDS011;46331;49.252;8.904;2023-12-28T01:23:10;11.02;;;4.38;;
60488;SDS011;46331;49.252;8.904;2023-12-28T01:23:51;10.00;;;4.67;;
60488;SDS011;46331;49.252;8.904;2023-12-28T01:24:31;10.23;;;4.30;;
60488;SDS011;46331;49.252;8.904;2023-12-28T01:25:12;9.03;;;4.40;;
60488;SDS011;46331;49.252;8.904;2023-12-28T01:25:54;10.25;;;4.07;;
60488;SDS011;46331;49.252;8.904;2023-12-28T01:26:36;10.30;;;4.47;;
60488;SDS011;46331;49.252;8.904;2023-12-28T01:27:16;7.93;;;4.30;;
60488;SDS011;46331;49.252;8.904;2023-12-28T01:27:57;9.20;;;4.03;;
60488;SDS011;46331;49.252;8.904;2023-12-28T01:28:37;9.70;;;4.37;;
60488;SDS011;46331;49.252;8.904;2023-12-28T01:29:18;10.73;;;4.95;;
60488;SDS011;46331;49.252;8.904;2023-12-28T01:29:58;10.13;;;4.40;;
60488;SDS011;46331;49.252;8.904;2023-12-28T01:30:39;9.63;;;3.97;;
60488;SDS011;46331;49.252;8.904;2023-12-28T01:31:19;9.80;;;4.43;;
60488;SDS011;46331;49.252;8.904;2023-12-28T01:32:00;9.93;;;4.40;;
60488;SDS011;46331;49.252;8.904;2023-12-28T01:32:40;11.15;;;5.13;;
60488;SDS011;46331;49.252;8.904;2023-12-28T01:33:21;12.83;;;5.10;;
60488;SDS011;46331;49.252;8.904;2023-12-28T01:34:01;10.30;;;4.55;;
60488;SDS011;46331;49.252;8.904;2023-12-28T01:34:42;10.77;;;5.00;;
60488;SDS011;46331;49.252;8.904;2023-12-28T01:35:23;8.85;;;4.20;;
60488;SDS011;46331;49.252;8.904;2023-12-28T01:36:15;11.90;;;4.90;;
60488;SDS011;46331;49.252;8.904;2023-12-28T01:36:59;12.60;;;4.80;;
60488;SDS011;46331;49.252;8.904;2023-12-28T01:37:40;12.45;;;5.20;;
60488;SDS011;46331;49.252;8.904;2023-12-28T01:38:20;10.13;;;4.68;;
60488;SDS011;46331;49.252;8.904;2023-12-28T01:39:01;10.33;;;4.83;;
60488;SDS011;46331;49.252;8.904;2023-12-28T01:39:41;10.40;;;4.90;;
60488;SDS011;46331;49.252;8.904;2023-12-28T01:40:22;10.60;;;4.67;;
60488;SDS011;46331;49.252;8.904;2023-12-28T01:41:02;11.73;;;4.78;;
60488;SDS011;46331;49.252;8.904;2023-12-28T01:41:44;10.93;;;4.82;;
60488;SDS011;46331;49.252;8.904;2023-12-28T01:42:25;10.88;;;4.50;;
60488;SDS011;46331;49.252;8.904;2023-12-28T01:43:06;12.05;;;4.65;;
60488;SDS011;46331;49.252;8.904;2023-12-28T01:43:47;10.45;;;4.57;;
60488;SDS011;46331;49.252;8.904;2023-12-28T01:44:27;9.87;;;4.37;;
60488;SDS011;46331;49.252;8.904;2023-12-28T01:45:08;11.15;;;4.90;;
60488;SDS011;46331;49.252;8.904;2023-12-28T01:45:49;9.23;;;4.60;;
60488;SDS011;46331;49.252;8.904;2023-12-28T01:46:29;11.80;;;5.43;;
60488;SDS011;46331;49.252;8.904;2023-12-28T01:47:11;11.80;;;4.57;;
60488;SDS011;46331;49.252;8.904;2023-12-28T01:47:55;10.77;;;4.70;;
60488;SDS011;46331;49.252;8.904;2023-12-28T01:48:38;11.13;;;4.70;;
60488;SDS011;46331;49.252;8.904;2023-12-28T01:49:19;11.20;;;4.40;;
60488;SDS011;46331;49.252;8.904;2023-12-28T01:50:02;9.02;;;4.30;;
60488;SDS011;46331;49.252;8.904;2023-12-28T01:50:42;9.13;;;4.18;;
60488;SDS011;46331;49.252;8.904;2023-12-28T01:51:23;13.17;;;5.00;;
60488;SDS011;46331;49.252;8.904;2023-12-28T01:52:05;9.77;;;4.50;;
60488;SDS011;46331;49.252;8.904;2023-12-28T01:52:47;8.93;;;4.03;;
60488;SDS011;46331;49.252;8.904;2023-12-28T01:53:28;10.45;;;5.30;;
60488;SDS011;46331;49.252;8.904;2023-12-28T01:54:09;8.63;;;4.40;;
60488;SDS011;46331;49.252;8.904;2023-12-28T01:54:50;9.93;;;4.60;;
60488;SDS011;46331;49.252;8.904;2023-12-28T01:55:31;10.00;;;4.60;;
60488;SDS011;46331;49.252;8.904;2023-12-28T01:56:13;11.30;;;4.53;;
60488;SDS011;46331;49.252;8.904;2023-12-28T01:56:54;11.68;;;4.50;;
60488;SDS011;46331;49.252;8.904;2023-12-28T01:57:36;13.07;;;4.53;;
60488;SDS011;46331;49.252;8.904;2023-12-28T01:58:16;10.97;;;4.37;;
60488;SDS011;46331;49.252;8.904;2023-12-28T01:58:58;9.13;;;4.25;;
60488;SDS011;46331;49.252;8.904;2023-12-28T01:59:40;11.27;;;4.95;;
60488;SDS011;46331;49.252;8.904;2023-12-28T02:00:21;11.35;;;4.70;;
60488;SDS011;46331;49.252;8.904;2023-12-28T02:01:03;10.77;;;4.82;;
60488;SDS011;46331;49.252;8.904;2023-12-28T02:01:45;10.40;;;4.72;;
60488;SDS011;46331;49.252;8.904;2023-12-28T02:02:26;10.52;;;5.10;;
60488;SDS011;46331;49.252;8.904;2023-12-28T02:03:07;9.65;;;5.03;;
60488;SDS011;46331;49.252;8.904;2023-12-28T02:03:48;10.13;;;4.53;;
60488;SDS011;46331;49.252;8.904;2023-12-28T02:04:29;11.70;;;4.88;;
60488;SDS011;46331;49.252;8.904;2023-12-28T02:05:10;11.50;;;5.28;;
60488;SDS011;46331;49.252;8.904;2023-12-28T02:05:52;11.30;;;5.20;;
60488;SDS011;46331;49.252;8.904;2023-12-28T02:06:34;12.45;;;5.13;;
60488;SDS011;46331;49.252;8.904;2023-12-28T02:07:14;14.10;;;5.70;;
60488;SDS011;46331;49.252;8.904;2023-12-28T02:07:55;11.48;;;5.57;;
60488;SDS011;46331;49.252;8.904;2023-12-28T02:08:37;12.00;;;5.72;;
60488;SDS011;46331;49.252;8.904;2023-12-28T02:09:18;12.70;;;5.78;;
60488;SDS011;46331;49.252;8.904;2023-12-28T02:09:58;12.90;;;6.30;;
60488;SDS011;46331;49.252;8.904;2023-12-28T02:10:39;12.93;;;5.82;;
60488;SDS011;46331;49.252;8.904;2023-12-28T02:11:20;13.45;;;5.72;;
60488;SDS011;46331;49.252;8.904;2023-12-28T02:12:01;14.60;;;7.70;;
60488;SDS011;46331;49.252;8.904;2023-12-28T02:12:42;12.27;;;6.05;;
60488;SDS011;46331;49.252;8.904;2023-12-28T02:13:23;13.20;;;6.15;;
60488;SDS011;46331;49.252;8.904;2023-12-28T02:14:05;11.80;;;5.72;;
60488;SDS011;46331;49.252;8.904;2023-12-28T02:14:45;10.80;;;5.77;;
60488;SDS011;46331;49.252;8.904;2023-12-28T02:15:26;13.52;;;5.72;;
60488;SDS011;46331;49.252;8.904;2023-12-28T02:16:09;10.53;;;5.00;;
60488;SDS011;46331;49.252;8.904;2023-12-28T02:17:13;10.73;;;4.75;;
60488;SDS011;46331;49.252;8.904;2023-12-28T02:18:05;8.38;;;4.30;;
60488;SDS011;46331;49.252;8.904;2023-12-28T02:18:51;11.25;;;4.60;;
60488;SDS011;46331;49.252;8.904;2023-12-28T02:19:44;9.55;;;4.47;;
60488;SDS011;46331;49.252;8.904;2023-12-28T02:20:29;11.45;;;4.70;;
60488;SDS011;46331;49.252;8.904;2023-12-28T02:21:12;9.38;;;4.45;;
60488;SDS011;46331;49.252;8.904;2023-12-28T02:21:54;10.13;;;4.43;;
60488;SDS011;46331;49.252;8.904;2023-12-28T02:22:35;8.13;;;4.22;;
60488;SDS011;46331;49.252;8.904;2023-12-28T02:23:16;9.60;;;3.90;;
60488;SDS011;46331;49.252;8.904;2023-12-28T02:23:57;9.85;;;4.93;;
60488;SDS011;46331;49.252;8.904;2023-12-28T02:24:54;8.73;;;4.15;;
60488;SDS011;46331;49.252;8.904;2023-12-28T02:25:37;10.75;;;4.05;;
60488;SDS011;46331;49.252;8.904;2023-12-28T02:26:17;9.57;;;4.27;;
60488;SDS011;46331;49.252;8.904;2023-12-28T02:26:58;9.48;;;4.22;;
60488;SDS011;46331;49.252;8.904;2023-12-28T02:27:42;9.03;;;4.17;;
60488;SDS011;46331;49.252;8.904;2023-12-28T02:28:26;8.35;;;4.10;;
60488;SDS011;46331;49.252;8.904;2023-12-28T02:29:07;8.83;;;4.23;;
60488;SDS011;46331;49.252;8.904;2023-12-28T02:29:49;11.40;;;4.30;;
60488;SDS011;46331;49.252;8.904;2023-12-28T02:30:29;7.22;;;3.47;;
60488;SDS011;46331;49.252;8.904;2023-12-28T02:31:14;11.20;;;3.97;;
60488;SDS011;46331;49.252;8.904;2023-12-28T02:32:01;9.38;;;3.90;;
60488;SDS011;46331;49.252;8.904;2023-12-28T02:33:59;8.88;;;3.83;;
60488;SDS011;46331;49.252;8.904;2023-12-28T02:34:46;8.15;;;3.40;;
60488;SDS011;46331;49.252;8.904;2023-12-28T02:35:33;8.23;;;3.50;;
60488;SDS011;46331;49.252;8.904;2023-12-28T02:36:18;7.03;;;3.30;;
60488;SDS011;46331;49.252;8.904;2023-12-28T02:37:02;7.25;;;3.42;;
60488;SDS011;46331;49.252;8.904;2023-12-28T02:37:48;7.97;;;3.45;;
60488;SDS011;46331;49.252;8.904;2023-12-28T02:38:35;8.60;;;3.67;;
60488;SDS011;46331;49.252;8.904;2023-12-28T02:39:18;9.55;;;4.03;;
60488;SDS011;46331;49.252;8.904;2023-12-28T02:40:00;8.60;;;3.50;;
60488;SDS011;46331;49.252;8.904;2023-12-28T02:40:42;7.03;;;3.30;;
60488;SDS011;46331;49.252;8.904;2023-12-28T02:41:24;8.13;;;3.58;;
60488;SDS011;46331;49.252;8.904;2023-12-28T02:42:06;8.02;;;3.55;;
60488;SDS011;46331;49.252;8.904;2023-12-28T02:42:46;9.40;;;3.45;;
60488;SDS011;46331;49.252;8.904;2023-12-28T02:43:28;8.18;;;3.40;;
60488;SDS011;46331;49.252;8.904;2023-12-28T02:44:08;8.20;;;3.60;;
60488;SDS011;46331;49.252;8.904;2023-12-28T02:44:49;7.68;;;3.80;;
60488;SDS011;46331;49.252;8.904;2023-12-28T02:45:30;8.55;;;3.78;;
60488;SDS011;46331;49.252;8.904;2023-12-28T02:46:11;7.93;;;3.73;;
60488;SDS011;46331;49.252;8.904;2023-12-28T02:46:51;8.23;;;3.40;;
60488;SDS011;46331;49.252;8.904;2023-12-28T02:47:32;8.57;;;3.15;;
60488;SDS011;46331;49.252;8.904;2023-12-28T02:48:12;8.57;;;3.63;;
60488;SDS011;46331;49.252;8.904;2023-12-28T02:48:53;8.10;;;3.30;;
60488;SDS011;46331;49.252;8.904;2023-12-28T02:49:37;7.63;;;3.45;;
60488;SDS011;46331;49.252;8.904;2023-12-28T02:50:18;8.63;;;3.50;;
60488;SDS011;46331;49.252;8.904;2023-12-28T02:50:58;8.63;;;3.78;;
60488;SDS011;46331;49.252;8.904;2023-12-28T02:51:39;7.90;;;3.40;;
60488;SDS011;46331;49.252;8.904;2023-12-28T02:52:19;9.90;;;3.77;;
60488;SDS011;46331;49.252;8.904;2023-12-28T02:53:00;9.55;;;3.50;;
60488;SDS011;46331;49.252;8.904;2023-12-28T02:53:41;6.72;;;2.88;;
60488;SDS011;46331;49.252;8.904;2023-12-28T02:54:21;6.72;;;3.08;;
60488;SDS011;46331;49.252;8.904;2023-12-28T02:55:02;9.77;;;4.07;;
60488;SDS011;46331;49.252;8.904;2023-12-28T02:55:43;7.80;;;3.58;;
60488;SDS011;46331;49.252;8.904;2023-12-28T02:56:23;7.32;;;3.38;;
60488;SDS011;46331;49.252;8.904;2023-12-28T02:57:04;6.83;;;2.73;;
60488;SDS011;46331;49.252;8.904;2023-12-28T02:57:44;8.90;;;3.20;;
60488;SDS011;46331;49.252;8.904;2023-12-28T02:58:25;9.80;;;3.10;;
60488;SDS011;46331;49.252;8.904;2023-12-28T02:59:05;7.32;;;3.00;;
60488;SDS011;46331;49.252;8.904;2023-12-28T02:59:46;7.95;;;3.55;;
60488;SDS011;46331;49.252;8.904;2023-12-28T03:00:27;8.45;;;3.70;;
60488;SDS011;46331;49.252;8.904;2023-12-28T03:01:08;6.88;;;2.95;;
60488;SDS011;46331;49.252;8.904;2023-12-28T03:01:49;7.97;;;3.10;;
60488;SDS011;46331;49.252;8.904;2023-12-28T03:02:29;7.03;;;3.03;;
60488;SDS011;46331;49.252;8.904;2023-12-28T03:03:10;7.85;;;3.42;;
60488;SDS011;46331;49.252;8.904;2023-12-28T03:03:50;7.53;;;3.30;;
60488;SDS011;46331;49.252;8.904;2023-12-28T03:04:30;8.30;;;3.30;;
60488;SDS011;46331;49.252;8.904;2023-12-28T03:05:11;7.88;;;3.28;;
60488;SDS011;46331;49.252;8.904;2023-12-28T03:05:52;7.57;;;3.20;;
60488;SDS011;46331;49.252;8.904;2023-12-28T03:06:32;7.95;;;3.20;;
60488;SDS011;46331;49.252;8.904;2023-12-28T03:07:13;7.63;;;3.30;;
60488;SDS011;46331;49.252;8.904;2023-12-28T03:07:53;8.00;;;3.47;;
60488;SDS011;46331;49.252;8.904;2023-12-28T03:08:35;7.63;;;3.20;;
60488;SDS011;46331;49.252;8.904;2023-12-28T03:09:16;6.90;;;2.78;;
60488;SDS011;46331;49.252;8.904;2023-12-28T03:09:56;7.60;;;3.20;;
60488;SDS011;46331;49.252;8.904;2023-12-28T03:10:37;8.05;;;2.95;;
60488;SDS011;46331;49.252;8.904;2023-12-28T03:11:18;8.63;;;3.37;;
60488;SDS011;46331;49.252;8.904;2023-12-28T03:12:00;8.55;;;2.83;;
60488;SDS011;46331;49.252;8.904;2023-12-28T03:12:41;7.35;;;2.83;;
60488;SDS011;46331;49.252;8.904;2023-12-28T03:13:22;8.37;;;2.60;;
60488;SDS011;46331;49.252;8.904;2023-12-28T03:14:02;6.22;;;2.50;;
60488;SDS011;46331;49.252;8.904;2023-12-28T03:14:43;9.00;;;3.47;;
60488;SDS011;46331;49.252;8.904;2023-12-28T03:15:24;7.50;;;2.70;;
60488;SDS011;46331;49.252;8.904;2023-12-28T03:16:04;7.90;;;3.03;;
60488;SDS011;46331;49.252;8.904;2023-12-28T03:16:45;8.07;;;3.08;;
60488;SDS011;46331;49.252;8.904;2023-12-28T03:17:25;7.82;;;2.90;;
60488;SDS011;46331;49.252;8.904;2023-12-28T03:18:06;6.38;;;2.72;;
60488;SDS011;46331;49.252;8.904;2023-12-28T03:18:46;6.47;;;2.63;;
60488;SDS011;46331;49.252;8.904;2023-12-28T03:19:27;6.65;;;2.65;;
60488;SDS011;46331;49.252;8.904;2023-12-28T03:20:08;6.30;;;2.67;;
60488;SDS011;46331;49.252;8.904;2023-12-28T03:20:49;7.10;;;2.50;;
60488;SDS011;46331;49.252;8.904;2023-12-28T03:21:29;6.90;;;2.40;;
60488;SDS011;46331;49.252;8.904;2023-12-28T03:22:10;7.20;;;2.67;;
60488;SDS011;46331;49.252;8.904;2023-12-28T03:22:51;5.70;;;2.17;;
60488;SDS011;46331;49.252;8.904;2023-12-28T03:23:34;6.88;;;2.70;;
60488;SDS011;46331;49.252;8.904;2023-12-28T03:24:14;7.38;;;2.10;;
60488;SDS011;46331;49.252;8.904;2023-12-28T03:24:55;5.23;;;1.87;;
60488;SDS011;46331;49.252;8.904;2023-12-28T03:25:35;7.07;;;1.98;;
60488;SDS011;46331;49.252;8.904;2023-12-28T03:26:16;5.73;;;1.77;;
60488;SDS011;46331;49.252;8.904;2023-12-28T03:26:56;4.78;;;1.67;;
60488;SDS011;46331;49.252;8.904;2023-12-28T03:27:38;6.20;;;1.48;;
60488;SDS011;46331;49.252;8.904;2023-12-28T03:28:19;7.05;;;1.40;;
60488;SDS011;46331;49.252;8.904;2023-12-28T03:29:00;3.67;;;1.10;;
60488;SDS011;46331;49.252;8.904;2023-12-28T03:29:41;4.97;;;1.40;;
60488;SDS011;46331;49.252;8.904;2023-12-28T03:30:24;4.95;;;1.35;;
60488;SDS011;46331;49.252;8.904;2023-12-28T03:31:04;3.65;;;1.13;;
60488;SDS011;46331;49.252;8.904;2023-12-28T03:31:45;4.00;;;1.03;;
60488;SDS011;46331;49.252;8.904;2023-12-28T03:32:26;3.95;;;1.17;;
60488;SDS011;46331;49.252;8.904;2023-12-28T03:33:06;3.83;;;1.03;;
60488;SDS011;46331;49.252;8.904;2023-12-28T03:33:47;4.45;;;1.23;;
60488;SDS011;46331;49.252;8.904;2023-12-28T03:34:28;3.25;;;0.90;;
60488;SDS011;46331;49.252;8.904;2023-12-28T03:35:10;3.77;;;1.10;;
60488;SDS011;46331;49.252;8.904;2023-12-28T03:35:50;5.57;;;1.20;;
60488;SDS011;46331;49.252;8.904;2023-12-28T03:36:32;3.70;;;1.10;;
60488;SDS011;46331;49.252;8.904;2023-12-28T03:37:12;4.80;;;1.20;;
60488;SDS011;46331;49.252;8.904;2023-12-28T03:37:53;3.67;;;1.00;;
60488;SDS011;46331;49.252;8.904;2023-12-28T03:38:33;4.03;;;1.20;;
60488;SDS011;46331;49.252;8.904;2023-12-28T03:39:14;3.93;;;1.10;;
60488;SDS011;46331;49.252;8.904;2023-12-28T03:39:54;3.53;;;0.90;;
60488;SDS011;46331;49.252;8.904;2023-12-28T03:40:35;4.77;;;1.20;;
60488;SDS011;46331;49.252;8.904;2023-12-28T03:41:16;4.10;;;1.10;;
60488;SDS011;46331;49.252;8.904;2023-12-28T03:41:58;3.70;;;0.93;;
60488;SDS011;46331;49.252;8.904;2023-12-28T03:42:39;4.60;;;1.10;;
60488;SDS011;46331;49.252;8.904;2023-12-28T03:43:19;3.67;;;0.80;;
60488;SDS011;46331;49.252;8.904;2023-12-28T03:44:00;5.30;;;1.20;;
60488;SDS011;46331;49.252;8.904;2023-12-28T03:44:40;4.18;;;1.08;;
60488;SDS011;46331;49.252;8.904;2023-12-28T03:45:21;3.20;;;0.83;;
60488;SDS011;46331;49.252;8.904;2023-12-28T03:46:01;5.77;;;0.90;;
60488;SDS011;46331;49.252;8.904;2023-12-28T03:46:42;5.22;;;0.95;;
60488;SDS011;46331;49.252;8.904;2023-12-28T03:47:23;4.50;;;1.05;;
60488;SDS011;46331;49.252;8.904;2023-12-28T03:48:04;5.27;;;1.00;;
60488;SDS011;46331;49.252;8.904;2023-12-28T03:48:45;3.70;;;1.17;;
60488;SDS011;46331;49.252;8.904;2023-12-28T03:49:25;4.88;;;1.20;;
60488;SDS011;46331;49.252;8.904;2023-12-28T03:50:08;3.42;;;1.02;;
60488;SDS011;46331;49.252;8.904;2023-12-28T03:50:49;4.03;;;1.13;;
60488;SDS011;46331;49.252;8.904;2023-12-28T03:51:29;3.70;;;0.90;;
60488;SDS011;46331;49.252;8.904;2023-12-28T03:52:10;3.60;;;0.97;;
60488;SDS011;46331;49.252;8.904;2023-12-28T03:52:50;4.15;;;1.10;;
60488;SDS011;46331;49.252;8.904;2023-12-28T03:53:31;4.25;;;1.05;;
60488;SDS011;46331;49.252;8.904;2023-12-28T03:54:12;3.50;;;0.90;;
60488;SDS011;46331;49.252;8.904;2023-12-28T03:54:56;4.88;;;1.13;;
60488;SDS011;46331;49.252;8.904;2023-12-28T03:55:36;4.07;;;1.00;;
60488;SDS011;46331;49.252;8.904;2023-12-28T03:56:18;4.63;;;1.00;;
60488;SDS011;46331;49.252;8.904;2023-12-28T03:57:00;4.22;;;1.00;;
60488;SDS011;46331;49.252;8.904;2023-12-28T03:57:40;4.50;;;0.87;;
60488;SDS011;46331;49.252;8.904;2023-12-28T03:58:22;3.33;;;0.90;;
60488;SDS011;46331;49.252;8.904;2023-12-28T03:59:02;4.20;;;0.80;;
60488;SDS011;46331;49.252;8.904;2023-12-28T03:59:43;4.90;;;1.10;;
60488;SDS011;46331;49.252;8.904;2023-12-28T04:00:23;4.20;;;1.20;;
60488;SDS011;46331;49.252;8.904;2023-12-28T04:01:05;4.60;;;1.15;;
60488;SDS011;46331;49.252;8.904;2023-12-28T04:01:46;3.60;;;1.10;;
60488;SDS011;46331;49.252;8.904;2023-12-28T04:02:27;4.13;;;1.10;;
60488;SDS011;46331;49.252;8.904;2023-12-28T04:03:11;5.70;;;1.20;;
60488;SDS011;46331;49.252;8.904;2023-12-28T04:03:51;5.40;;;1.10;;
60488;SDS011;46331;49.252;8.904;2023-12-28T04:04:32;4.65;;;1.30;;
60488;SDS011;46331;49.252;8.904;2023-12-28T04:05:12;4.53;;;1.30;;
60488;SDS011;46331;49.252;8.904;2023-12-28T04:05:53;4.77;;;1.10;;
60488;SDS011;46331;49.252;8.904;2023-12-28T04:06:33;4.03;;;1.23;;
60488;SDS011;46331;49.252;8.904;2023-12-28T04:07:14;4.27;;;1.27;;
60488;SDS011;46331;49.252;8.904;2023-12-28T04:07:56;4.75;;;1.02;;